sensor_id;sensor_type;location;lat;lon;timestamp;P1;durP1;ratioP1;P2;durP2;ratioP2
54845;SDS011;53889;50.084;8.646;2023-01-19T00:00:29;21.10;;;11.20;;
54845;SDS011;53889;50.084;8.646;2023-01-19T00:02:55;17.02;;;9.88;;
54845;SDS011;53889;50.084;8.646;2023-01-19T00:05:22;22.08;;;10.18;;
54845;SDS011;53889;50.084;8.646;2023-01-19T00:07:49;20.27;;;10.60;;
54845;SDS011;53889;50.084;8.646;2023-01-19T00:10:16;23.52;;;11.50;;
54845;SDS011;53889;50.084;8.646;2023-01-19T00:12:42;19.30;;;10.48;;
54845;SDS011;53889;50.084;8.646;2023-01-19T00:15:11;18.92;;;9.93;;
54845;SDS011;53889;50.084;8.646;2023-01-19T00:17:37;19.52;;;10.40;;
54845;SDS011;53889;50.084;8.646;2023-01-19T00:20:06;19.85;;;11.13;;
54845;SDS011;53889;50.084;8.646;2023-01-19T00:22:35;18.52;;;10.43;;
54845;SDS011;53889;50.084;8.646;2023-01-19T00:25:01;20.80;;;10.25;;
54845;SDS011;53889;50.084;8.646;2023-01-19T00:27:28;18.55;;;10.20;;
54845;SDS011;53889;50.084;8.646;2023-01-19T00:29:58;19.65;;;10.63;;
54845;SDS011;53889;50.084;8.646;2023-01-19T00:32:27;21.83;;;11.30;;
54845;SDS011;53889;50.084;8.646;2023-01-19T00:34:54;22.33;;;11.40;;
54845;SDS011;53889;50.084;8.646;2023-01-19T09:36:22;18.40;;;11.60;;
54845;SDS011;53889;50.084;8.646;2023-01-19T09:38:49;18.02;;;10.93;;
54845;SDS011;53889;50.084;8.646;2023-01-19T09:41:18;20.33;;;11.35;;
54845;SDS011;53889;50.084;8.646;2023-01-19T09:43:47;19.92;;;10.73;;
54845;SDS011;53889;50.084;8.646;2023-01-19T09:46:18;16.50;;;10.50;;
54845;SDS011;53889;50.084;8.646;2023-01-19T09:48:49;18.75;;;10.63;;
54845;SDS011;53889;50.084;8.646;2023-01-19T09:51:18;17.23;;;10.35;;
54845;SDS011;53889;50.084;8.646;2023-01-19T09:53:53;16.58;;;10.07;;
54845;SDS011;53889;50.084;8.646;2023-01-19T09:56:30;17.00;;;10.98;;
54845;SDS011;53889;50.084;8.646;2023-01-19T09:58:57;16.80;;;10.43;;
54845;SDS011;53889;50.084;8.646;2023-01-19T10:01:33;18.58;;;10.80;;
54845;SDS011;53889;50.084;8.646;2023-01-19T10:04:31;16.00;;;10.48;;
54845;SDS011;53889;50.084;8.646;2023-01-19T10:07:05;18.83;;;10.60;;
54845;SDS011;53889;50.084;8.646;2023-01-19T10:09:44;16.02;;;9.45;;
54845;SDS011;53889;50.084;8.646;2023-01-19T10:12:25;15.98;;;9.77;;
54845;SDS011;53889;50.084;8.646;2023-01-19T10:15:02;17.25;;;10.20;;
54845;SDS011;53889;50.084;8.646;2023-01-19T10:17:37;16.60;;;9.43;;
54845;SDS011;53889;50.084;8.646;2023-01-19T10:20:15;18.00;;;9.90;;
54845;SDS011;53889;50.084;8.646;2023-01-19T10:22:48;16.00;;;10.45;;
54845;SDS011;53889;50.084;8.646;2023-01-19T10:25:18;17.25;;;10.35;;
54845;SDS011;53889;50.084;8.646;2023-01-19T10:27:48;17.15;;;10.48;;
54845;SDS011;53889;50.084;8.646;2023-01-19T10:30:15;20.42;;;11.55;;
54845;SDS011;53889;50.084;8.646;2023-01-19T10:32:47;17.50;;;10.70;;
54845;SDS011;53889;50.084;8.646;2023-01-19T10:35:15;17.42;;;10.38;;
54845;SDS011;53889;50.084;8.646;2023-01-19T10:37:47;17.30;;;11.30;;
54845;SDS011;53889;50.084;8.646;2023-01-19T10:40:18;19.15;;;11.18;;
54845;SDS011;53889;50.084;8.646;2023-01-19T10:42:52;21.38;;;11.90;;
54845;SDS011;53889;50.084;8.646;2023-01-19T10:45:19;20.95;;;11.98;;
54845;SDS011;53889;50.084;8.646;2023-01-19T10:47:49;17.23;;;11.00;;
54845;SDS011;53889;50.084;8.646;2023-01-19T10:50:22;15.40;;;10.75;;
54845;SDS011;53889;50.084;8.646;2023-01-19T10:52:51;18.83;;;11.10;;
54845;SDS011;53889;50.084;8.646;2023-01-19T10:55:25;20.80;;;11.30;;
54845;SDS011;53889;50.084;8.646;2023-01-19T10:57:53;20.85;;;11.80;;
54845;SDS011;53889;50.084;8.646;2023-01-19T11:00:28;16.73;;;10.45;;
54845;SDS011;53889;50.084;8.646;2023-01-19T11:03:01;17.65;;;10.68;;
54845;SDS011;53889;50.084;8.646;2023-01-19T11:05:29;16.75;;;10.60;;
54845;SDS011;53889;50.084;8.646;2023-01-19T11:07:57;19.83;;;11.82;;
54845;SDS011;53889;50.084;8.646;2023-01-19T11:10:26;22.70;;;12.10;;
54845;SDS011;53889;50.084;8.646;2023-01-19T11:13:00;19.58;;;11.35;;
54845;SDS011;53889;50.084;8.646;2023-01-19T11:15:32;18.40;;;10.23;;
54845;SDS011;53889;50.084;8.646;2023-01-19T11:18:00;19.45;;;11.40;;
54845;SDS011;53889;50.084;8.646;2023-01-19T11:20:32;17.30;;;10.55;;
54845;SDS011;53889;50.084;8.646;2023-01-19T11:23:16;16.58;;;9.43;;
54845;SDS011;53889;50.084;8.646;2023-01-19T11:25:47;14.57;;;9.38;;
54845;SDS011;53889;50.084;8.646;2023-01-19T11:28:16;15.98;;;9.93;;
54845;SDS011;53889;50.084;8.646;2023-01-19T11:30:52;19.80;;;11.65;;
54845;SDS011;53889;50.084;8.646;2023-01-19T11:33:24;15.25;;;9.00;;
54845;SDS011;53889;50.084;8.646;2023-01-19T11:36:00;15.13;;;10.18;;
54845;SDS011;53889;50.084;8.646;2023-01-19T11:38:29;12.82;;;8.30;;
54845;SDS011;53889;50.084;8.646;2023-01-19T11:40:58;14.10;;;9.20;;
54845;SDS011;53889;50.084;8.646;2023-01-19T11:43:28;17.38;;;10.65;;
54845;SDS011;53889;50.084;8.646;2023-01-19T11:45:56;14.95;;;8.43;;
54845;SDS011;53889;50.084;8.646;2023-01-19T11:48:26;11.68;;;7.45;;
54845;SDS011;53889;50.084;8.646;2023-01-19T11:50:56;13.27;;;7.15;;
54845;SDS011;53889;50.084;8.646;2023-01-19T11:53:29;14.88;;;7.90;;
54845;SDS011;53889;50.084;8.646;2023-01-19T11:56:01;11.73;;;7.38;;
54845;SDS011;53889;50.084;8.646;2023-01-19T11:58:30;12.45;;;8.25;;
54845;SDS011;53889;50.084;8.646;2023-01-19T12:01:02;13.77;;;7.35;;
54845;SDS011;53889;50.084;8.646;2023-01-19T12:03:36;14.85;;;8.93;;
54845;SDS011;53889;50.084;8.646;2023-01-19T12:06:06;17.05;;;9.80;;
54845;SDS011;53889;50.084;8.646;2023-01-19T12:08:38;17.40;;;11.18;;
54845;SDS011;53889;50.084;8.646;2023-01-19T12:11:15;28.65;;;15.30;;
54845;SDS011;53889;50.084;8.646;2023-01-19T12:13:45;16.98;;;10.60;;
54845;SDS011;53889;50.084;8.646;2023-01-19T12:16:16;18.73;;;11.90;;
54845;SDS011;53889;50.084;8.646;2023-01-19T12:18:46;17.15;;;10.60;;
54845;SDS011;53889;50.084;8.646;2023-01-19T12:21:14;18.65;;;11.05;;
54845;SDS011;53889;50.084;8.646;2023-01-19T12:23:43;18.58;;;11.35;;
54845;SDS011;53889;50.084;8.646;2023-01-19T12:26:29;16.55;;;10.32;;
54845;SDS011;53889;50.084;8.646;2023-01-19T12:29:03;18.00;;;11.20;;
54845;SDS011;53889;50.084;8.646;2023-01-19T12:31:33;17.83;;;11.05;;
54845;SDS011;53889;50.084;8.646;2023-01-19T12:36:55;16.80;;;10.65;;
54845;SDS011;53889;50.084;8.646;2023-01-19T12:39:27;18.67;;;10.50;;
54845;SDS011;53889;50.084;8.646;2023-01-19T12:42:03;19.05;;;11.05;;
54845;SDS011;53889;50.084;8.646;2023-01-19T12:44:38;17.42;;;10.57;;
54845;SDS011;53889;50.084;8.646;2023-01-19T12:47:16;18.02;;;10.93;;
54845;SDS011;53889;50.084;8.646;2023-01-19T12:49:45;16.60;;;9.88;;
54845;SDS011;53889;50.084;8.646;2023-01-19T12:52:26;16.60;;;9.63;;
54845;SDS011;53889;50.084;8.646;2023-01-19T12:54:58;13.85;;;8.05;;
54845;SDS011;53889;50.084;8.646;2023-01-19T13:00:03;14.75;;;8.13;;
54845;SDS011;53889;50.084;8.646;2023-01-19T13:05:21;14.52;;;8.30;;
54845;SDS011;53889;50.084;8.646;2023-01-19T13:08:25;13.10;;;7.65;;
54845;SDS011;53889;50.084;8.646;2023-01-19T13:13:43;13.40;;;7.40;;
54845;SDS011;53889;50.084;8.646;2023-01-19T13:16:49;13.70;;;7.78;;
54845;SDS011;53889;50.084;8.646;2023-01-19T13:19:27;14.02;;;7.90;;
54845;SDS011;53889;50.084;8.646;2023-01-19T13:25:39;13.10;;;7.97;;
54845;SDS011;53889;50.084;8.646;2023-01-19T13:28:08;11.52;;;7.10;;
54845;SDS011;53889;50.084;8.646;2023-01-19T13:30:38;11.52;;;7.03;;
54845;SDS011;53889;50.084;8.646;2023-01-19T13:33:19;12.07;;;7.15;;
54845;SDS011;53889;50.084;8.646;2023-01-19T13:35:50;14.63;;;7.55;;
54845;SDS011;53889;50.084;8.646;2023-01-19T13:38:20;12.85;;;7.25;;
54845;SDS011;53889;50.084;8.646;2023-01-19T13:40:48;12.60;;;7.30;;
54845;SDS011;53889;50.084;8.646;2023-01-19T13:43:16;13.90;;;7.47;;
54845;SDS011;53889;50.084;8.646;2023-01-19T13:45:47;12.20;;;7.25;;
54845;SDS011;53889;50.084;8.646;2023-01-19T13:48:17;17.38;;;9.40;;
54845;SDS011;53889;50.084;8.646;2023-01-19T13:50:55;14.15;;;8.82;;
54845;SDS011;53889;50.084;8.646;2023-01-19T13:53:26;16.42;;;8.40;;
54845;SDS011;53889;50.084;8.646;2023-01-19T13:56:16;18.52;;;8.93;;
54845;SDS011;53889;50.084;8.646;2023-01-19T13:58:58;15.15;;;9.35;;
54845;SDS011;53889;50.084;8.646;2023-01-19T14:01:30;13.23;;;8.00;;
54845;SDS011;53889;50.084;8.646;2023-01-19T14:03:57;17.25;;;10.27;;
54845;SDS011;53889;50.084;8.646;2023-01-19T14:06:29;14.40;;;9.25;;
54845;SDS011;53889;50.084;8.646;2023-01-19T14:09:05;15.95;;;8.40;;
54845;SDS011;53889;50.084;8.646;2023-01-19T14:11:33;19.98;;;9.70;;
54845;SDS011;53889;50.084;8.646;2023-01-19T14:14:00;16.63;;;9.52;;
54845;SDS011;53889;50.084;8.646;2023-01-19T14:16:27;16.23;;;9.43;;
54845;SDS011;53889;50.084;8.646;2023-01-19T14:18:59;15.95;;;9.15;;
54845;SDS011;53889;50.084;8.646;2023-01-19T14:21:35;19.63;;;10.40;;
54845;SDS011;53889;50.084;8.646;2023-01-19T14:24:07;14.85;;;7.85;;
54845;SDS011;53889;50.084;8.646;2023-01-19T14:26:38;15.90;;;8.30;;
54845;SDS011;53889;50.084;8.646;2023-01-19T14:29:18;14.77;;;8.63;;
54845;SDS011;53889;50.084;8.646;2023-01-19T14:31:49;16.02;;;9.48;;
54845;SDS011;53889;50.084;8.646;2023-01-19T14:34:32;18.02;;;8.48;;
54845;SDS011;53889;50.084;8.646;2023-01-19T14:37:01;19.55;;;9.80;;
54845;SDS011;53889;50.084;8.646;2023-01-19T14:39:30;15.40;;;8.20;;
54845;SDS011;53889;50.084;8.646;2023-01-19T14:42:00;14.88;;;7.80;;
54845;SDS011;53889;50.084;8.646;2023-01-19T14:44:31;23.65;;;9.55;;
54845;SDS011;53889;50.084;8.646;2023-01-19T14:47:01;18.92;;;8.65;;
54845;SDS011;53889;50.084;8.646;2023-01-19T14:49:33;19.05;;;9.73;;
54845;SDS011;53889;50.084;8.646;2023-01-19T14:52:03;19.20;;;8.70;;
54845;SDS011;53889;50.084;8.646;2023-01-19T14:54:34;16.63;;;9.55;;
54845;SDS011;53889;50.084;8.646;2023-01-19T14:57:03;19.70;;;9.73;;
54845;SDS011;53889;50.084;8.646;2023-01-19T14:59:30;21.55;;;11.90;;
54845;SDS011;53889;50.084;8.646;2023-01-19T15:01:57;20.58;;;11.00;;
54845;SDS011;53889;50.084;8.646;2023-01-19T15:04:25;21.50;;;10.48;;
54845;SDS011;53889;50.084;8.646;2023-01-19T15:06:53;20.45;;;11.93;;
54845;SDS011;53889;50.084;8.646;2023-01-19T15:09:20;22.33;;;12.15;;
54845;SDS011;53889;50.084;8.646;2023-01-19T15:11:48;24.55;;;12.70;;
54845;SDS011;53889;50.084;8.646;2023-01-19T15:14:16;25.50;;;12.75;;
54845;SDS011;53889;50.084;8.646;2023-01-19T15:16:45;18.85;;;11.13;;
54845;SDS011;53889;50.084;8.646;2023-01-19T15:19:13;26.83;;;12.63;;
54845;SDS011;53889;50.084;8.646;2023-01-19T15:21:42;20.60;;;11.15;;
54845;SDS011;53889;50.084;8.646;2023-01-19T15:24:12;27.65;;;13.60;;
54845;SDS011;53889;50.084;8.646;2023-01-19T15:26:40;22.15;;;12.23;;
54845;SDS011;53889;50.084;8.646;2023-01-19T15:29:13;22.33;;;12.50;;
54845;SDS011;53889;50.084;8.646;2023-01-19T15:31:45;22.50;;;12.48;;
54845;SDS011;53889;50.084;8.646;2023-01-19T15:34:11;21.33;;;11.38;;
54845;SDS011;53889;50.084;8.646;2023-01-19T15:36:38;24.52;;;12.35;;
54845;SDS011;53889;50.084;8.646;2023-01-19T15:39:06;25.35;;;12.32;;
54845;SDS011;53889;50.084;8.646;2023-01-19T15:41:35;21.90;;;11.30;;
54845;SDS011;53889;50.084;8.646;2023-01-19T15:44:04;23.75;;;12.23;;
54845;SDS011;53889;50.084;8.646;2023-01-19T15:46:31;25.10;;;13.40;;
54845;SDS011;53889;50.084;8.646;2023-01-19T15:48:58;24.52;;;12.55;;
54845;SDS011;53889;50.084;8.646;2023-01-19T15:51:25;24.20;;;11.98;;
54845;SDS011;53889;50.084;8.646;2023-01-19T15:53:52;26.08;;;13.68;;
54845;SDS011;53889;50.084;8.646;2023-01-19T15:56:20;23.02;;;11.15;;
54845;SDS011;53889;50.084;8.646;2023-01-19T15:58:50;24.55;;;12.48;;
54845;SDS011;53889;50.084;8.646;2023-01-19T16:01:18;25.08;;;11.85;;
54845;SDS011;53889;50.084;8.646;2023-01-19T16:03:45;19.25;;;10.77;;
54845;SDS011;53889;50.084;8.646;2023-01-19T16:06:13;19.90;;;10.80;;
54845;SDS011;53889;50.084;8.646;2023-01-19T16:08:41;23.77;;;11.85;;
54845;SDS011;53889;50.084;8.646;2023-01-19T16:11:09;18.58;;;10.95;;
54845;SDS011;53889;50.084;8.646;2023-01-19T16:13:38;21.20;;;10.90;;
54845;SDS011;53889;50.084;8.646;2023-01-19T16:16:07;20.40;;;11.40;;
54845;SDS011;53889;50.084;8.646;2023-01-19T16:18:39;17.93;;;10.10;;
54845;SDS011;53889;50.084;8.646;2023-01-19T16:21:06;19.58;;;10.98;;
54845;SDS011;53889;50.084;8.646;2023-01-19T16:23:33;19.25;;;10.63;;
54845;SDS011;53889;50.084;8.646;2023-01-19T16:26:00;18.52;;;10.10;;
54845;SDS011;53889;50.084;8.646;2023-01-19T16:28:29;24.33;;;12.32;;
54845;SDS011;53889;50.084;8.646;2023-01-19T16:30:59;21.33;;;12.15;;
54845;SDS011;53889;50.084;8.646;2023-01-19T16:33:27;24.63;;;12.07;;
54845;SDS011;53889;50.084;8.646;2023-01-19T16:35:54;21.67;;;11.45;;
54845;SDS011;53889;50.084;8.646;2023-01-19T16:38:21;26.95;;;13.80;;
54845;SDS011;53889;50.084;8.646;2023-01-19T16:40:48;23.33;;;12.00;;
54845;SDS011;53889;50.084;8.646;2023-01-19T16:43:15;25.90;;;12.80;;
54845;SDS011;53889;50.084;8.646;2023-01-19T16:45:54;22.30;;;11.75;;
54845;SDS011;53889;50.084;8.646;2023-01-19T16:48:23;27.00;;;13.25;;
54845;SDS011;53889;50.084;8.646;2023-01-19T16:50:58;29.58;;;14.20;;
54845;SDS011;53889;50.084;8.646;2023-01-19T16:53:26;26.27;;;14.65;;
54845;SDS011;53889;50.084;8.646;2023-01-19T16:55:53;27.13;;;13.27;;
54845;SDS011;53889;50.084;8.646;2023-01-19T16:58:20;25.45;;;13.18;;
54845;SDS011;53889;50.084;8.646;2023-01-19T17:00:47;28.42;;;15.43;;
54845;SDS011;53889;50.084;8.646;2023-01-19T17:03:14;27.73;;;14.50;;
54845;SDS011;53889;50.084;8.646;2023-01-19T17:05:46;25.90;;;13.43;;
54845;SDS011;53889;50.084;8.646;2023-01-19T17:08:15;27.50;;;12.93;;
54845;SDS011;53889;50.084;8.646;2023-01-19T17:10:43;29.10;;;13.93;;
54845;SDS011;53889;50.084;8.646;2023-01-19T17:13:09;32.10;;;14.00;;
54845;SDS011;53889;50.084;8.646;2023-01-19T17:15:36;26.75;;;12.63;;
54845;SDS011;53889;50.084;8.646;2023-01-19T17:18:03;23.75;;;13.93;;
54845;SDS011;53889;50.084;8.646;2023-01-19T17:20:31;23.65;;;12.95;;
54845;SDS011;53889;50.084;8.646;2023-01-19T17:22:58;21.80;;;13.43;;
54845;SDS011;53889;50.084;8.646;2023-01-19T17:25:26;22.75;;;12.73;;
54845;SDS011;53889;50.084;8.646;2023-01-19T17:27:52;18.70;;;11.18;;
54845;SDS011;53889;50.084;8.646;2023-01-19T17:30:19;22.23;;;11.68;;
54845;SDS011;53889;50.084;8.646;2023-01-19T17:32:46;21.02;;;12.15;;
54845;SDS011;53889;50.084;8.646;2023-01-19T17:35:13;24.80;;;11.93;;
54845;SDS011;53889;50.084;8.646;2023-01-19T17:37:39;24.27;;;13.15;;
54845;SDS011;53889;50.084;8.646;2023-01-19T17:40:07;22.67;;;12.70;;
54845;SDS011;53889;50.084;8.646;2023-01-19T17:42:38;22.67;;;12.52;;
54845;SDS011;53889;50.084;8.646;2023-01-19T17:45:06;21.55;;;12.40;;
54845;SDS011;53889;50.084;8.646;2023-01-19T17:47:34;21.13;;;12.88;;
54845;SDS011;53889;50.084;8.646;2023-01-19T17:50:02;20.20;;;11.23;;
54845;SDS011;53889;50.084;8.646;2023-01-19T17:52:30;27.55;;;14.10;;
54845;SDS011;53889;50.084;8.646;2023-01-19T17:54:56;20.10;;;11.23;;
54845;SDS011;53889;50.084;8.646;2023-01-19T17:57:23;23.35;;;13.20;;
54845;SDS011;53889;50.084;8.646;2023-01-19T17:59:51;21.90;;;11.93;;
54845;SDS011;53889;50.084;8.646;2023-01-19T18:02:18;26.85;;;14.30;;
54845;SDS011;53889;50.084;8.646;2023-01-19T18:04:48;24.75;;;14.00;;
54845;SDS011;53889;50.084;8.646;2023-01-19T18:07:16;25.02;;;14.20;;
54845;SDS011;53889;50.084;8.646;2023-01-19T18:09:42;23.95;;;13.82;;
54845;SDS011;53889;50.084;8.646;2023-01-19T18:12:09;23.85;;;13.77;;
54845;SDS011;53889;50.084;8.646;2023-01-19T18:14:36;24.38;;;13.98;;
54845;SDS011;53889;50.084;8.646;2023-01-19T18:17:05;26.35;;;14.30;;
54845;SDS011;53889;50.084;8.646;2023-01-19T18:19:32;32.35;;;15.52;;
54845;SDS011;53889;50.084;8.646;2023-01-19T18:21:59;25.98;;;14.40;;
54845;SDS011;53889;50.084;8.646;2023-01-19T18:24:26;22.00;;;12.63;;
54845;SDS011;53889;50.084;8.646;2023-01-19T18:26:53;26.38;;;14.38;;
54845;SDS011;53889;50.084;8.646;2023-01-19T18:29:20;24.20;;;14.75;;
54845;SDS011;53889;50.084;8.646;2023-01-19T18:31:46;22.92;;;13.25;;
54845;SDS011;53889;50.084;8.646;2023-01-19T18:34:16;27.90;;;15.27;;
54845;SDS011;53889;50.084;8.646;2023-01-19T18:36:43;27.05;;;14.50;;
54845;SDS011;53889;50.084;8.646;2023-01-19T18:39:24;28.88;;;15.82;;
54845;SDS011;53889;50.084;8.646;2023-01-19T18:41:51;25.92;;;13.57;;
54845;SDS011;53889;50.084;8.646;2023-01-19T18:44:18;27.50;;;14.27;;
54845;SDS011;53889;50.084;8.646;2023-01-19T18:46:44;25.33;;;13.77;;
54845;SDS011;53889;50.084;8.646;2023-01-19T18:49:11;25.30;;;13.27;;
54845;SDS011;53889;50.084;8.646;2023-01-19T18:51:39;28.05;;;15.80;;
54845;SDS011;53889;50.084;8.646;2023-01-19T18:54:07;25.48;;;14.13;;
54845;SDS011;53889;50.084;8.646;2023-01-19T18:56:35;25.08;;;14.63;;
54845;SDS011;53889;50.084;8.646;2023-01-19T18:59:01;24.17;;;13.57;;
54845;SDS011;53889;50.084;8.646;2023-01-19T19:01:29;23.33;;;13.43;;
54845;SDS011;53889;50.084;8.646;2023-01-19T19:03:59;22.63;;;12.88;;
54845;SDS011;53889;50.084;8.646;2023-01-19T19:06:25;24.38;;;14.68;;
54845;SDS011;53889;50.084;8.646;2023-01-19T19:08:54;25.23;;;14.57;;
54845;SDS011;53889;50.084;8.646;2023-01-19T19:11:23;24.75;;;14.07;;
54845;SDS011;53889;50.084;8.646;2023-01-19T19:13:53;32.63;;;16.80;;
54845;SDS011;53889;50.084;8.646;2023-01-19T19:16:21;26.92;;;15.02;;
54845;SDS011;53889;50.084;8.646;2023-01-19T19:18:47;29.00;;;15.38;;
54845;SDS011;53889;50.084;8.646;2023-01-19T19:21:15;25.17;;;14.45;;
54845;SDS011;53889;50.084;8.646;2023-01-19T19:23:43;25.77;;;14.13;;
54845;SDS011;53889;50.084;8.646;2023-01-19T19:26:16;26.15;;;14.38;;
54845;SDS011;53889;50.084;8.646;2023-01-19T19:28:42;29.40;;;16.38;;
54845;SDS011;53889;50.084;8.646;2023-01-19T19:31:11;26.83;;;15.52;;
54845;SDS011;53889;50.084;8.646;2023-01-19T19:33:40;26.30;;;15.13;;
54845;SDS011;53889;50.084;8.646;2023-01-19T19:36:08;34.17;;;17.05;;
54845;SDS011;53889;50.084;8.646;2023-01-19T19:38:36;27.75;;;15.88;;
54845;SDS011;53889;50.084;8.646;2023-01-19T19:41:05;32.03;;;17.90;;
54845;SDS011;53889;50.084;8.646;2023-01-19T19:43:34;30.60;;;16.38;;
54845;SDS011;53889;50.084;8.646;2023-01-19T19:46:01;34.78;;;18.80;;
54845;SDS011;53889;50.084;8.646;2023-01-19T19:48:29;25.23;;;15.00;;
54845;SDS011;53889;50.084;8.646;2023-01-19T19:51:02;29.70;;;15.88;;
54845;SDS011;53889;50.084;8.646;2023-01-19T19:53:31;29.00;;;16.33;;
54845;SDS011;53889;50.084;8.646;2023-01-19T19:56:01;29.38;;;16.40;;
54845;SDS011;53889;50.084;8.646;2023-01-19T19:58:29;29.70;;;15.85;;
54845;SDS011;53889;50.084;8.646;2023-01-19T20:00:57;32.83;;;17.88;;
54845;SDS011;53889;50.084;8.646;2023-01-19T20:03:29;29.40;;;16.52;;
54845;SDS011;53889;50.084;8.646;2023-01-19T20:06:00;32.58;;;19.48;;
54845;SDS011;53889;50.084;8.646;2023-01-19T20:08:28;28.75;;;16.10;;
54845;SDS011;53889;50.084;8.646;2023-01-19T20:10:54;39.75;;;19.27;;
54845;SDS011;53889;50.084;8.646;2023-01-19T20:13:30;43.65;;;20.08;;
54845;SDS011;53889;50.084;8.646;2023-01-19T20:16:00;40.35;;;20.38;;
54845;SDS011;53889;50.084;8.646;2023-01-19T20:18:28;35.33;;;19.13;;
54845;SDS011;53889;50.084;8.646;2023-01-19T20:20:55;40.42;;;21.15;;
54845;SDS011;53889;50.084;8.646;2023-01-19T20:23:21;38.90;;;19.88;;
54845;SDS011;53889;50.084;8.646;2023-01-19T20:25:48;46.22;;;21.83;;
54845;SDS011;53889;50.084;8.646;2023-01-19T20:28:15;40.03;;;21.02;;
54845;SDS011;53889;50.084;8.646;2023-01-19T20:30:42;37.95;;;19.27;;
54845;SDS011;53889;50.084;8.646;2023-01-19T20:33:10;42.05;;;21.35;;
54845;SDS011;53889;50.084;8.646;2023-01-19T20:35:36;33.80;;;18.65;;
54845;SDS011;53889;50.084;8.646;2023-01-19T20:38:03;38.53;;;21.33;;
54845;SDS011;53889;50.084;8.646;2023-01-19T20:40:30;35.85;;;19.15;;
54845;SDS011;53889;50.084;8.646;2023-01-19T20:42:57;38.72;;;20.63;;
54845;SDS011;53889;50.084;8.646;2023-01-19T20:45:23;41.78;;;22.85;;
54845;SDS011;53889;50.084;8.646;2023-01-19T20:47:50;36.47;;;19.50;;
54845;SDS011;53889;50.084;8.646;2023-01-19T20:50:19;29.00;;;17.23;;
54845;SDS011;53889;50.084;8.646;2023-01-19T20:52:46;31.13;;;17.48;;
54845;SDS011;53889;50.084;8.646;2023-01-19T20:55:14;29.98;;;17.40;;
54845;SDS011;53889;50.084;8.646;2023-01-19T20:57:40;40.33;;;19.85;;
54845;SDS011;53889;50.084;8.646;2023-01-19T21:00:08;33.67;;;19.20;;
54845;SDS011;53889;50.084;8.646;2023-01-19T21:02:36;43.63;;;19.10;;
54845;SDS011;53889;50.084;8.646;2023-01-19T21:05:03;34.20;;;18.08;;
54845;SDS011;53889;50.084;8.646;2023-01-19T21:07:31;39.28;;;20.58;;
54845;SDS011;53889;50.084;8.646;2023-01-19T21:09:58;36.15;;;18.00;;
54845;SDS011;53889;50.084;8.646;2023-01-19T21:12:25;42.53;;;21.10;;
54845;SDS011;53889;50.084;8.646;2023-01-19T21:14:51;28.88;;;17.05;;
54845;SDS011;53889;50.084;8.646;2023-01-19T21:17:18;41.08;;;21.58;;
54845;SDS011;53889;50.084;8.646;2023-01-19T21:19:45;29.05;;;16.75;;
54845;SDS011;53889;50.084;8.646;2023-01-19T21:22:12;38.00;;;20.17;;
54845;SDS011;53889;50.084;8.646;2023-01-19T21:24:40;36.45;;;18.67;;
54845;SDS011;53889;50.084;8.646;2023-01-19T21:27:07;34.63;;;18.95;;
54845;SDS011;53889;50.084;8.646;2023-01-19T21:29:33;31.17;;;16.83;;
54845;SDS011;53889;50.084;8.646;2023-01-19T21:32:00;37.55;;;19.58;;
54845;SDS011;53889;50.084;8.646;2023-01-19T21:34:27;35.92;;;19.45;;
54845;SDS011;53889;50.084;8.646;2023-01-19T21:36:53;38.10;;;20.50;;
54845;SDS011;53889;50.084;8.646;2023-01-19T21:39:20;40.72;;;20.10;;
54845;SDS011;53889;50.084;8.646;2023-01-19T21:41:48;37.53;;;20.23;;
54845;SDS011;53889;50.084;8.646;2023-01-19T21:44:15;31.67;;;17.15;;
54845;SDS011;53889;50.084;8.646;2023-01-19T21:46:41;34.40;;;18.38;;
54845;SDS011;53889;50.084;8.646;2023-01-19T21:49:11;45.25;;;21.38;;
54845;SDS011;53889;50.084;8.646;2023-01-19T21:51:42;35.13;;;18.90;;
54845;SDS011;53889;50.084;8.646;2023-01-19T21:54:08;35.17;;;18.45;;
54845;SDS011;53889;50.084;8.646;2023-01-19T21:56:36;33.15;;;17.85;;
54845;SDS011;53889;50.084;8.646;2023-01-19T21:59:05;34.42;;;19.92;;
54845;SDS011;53889;50.084;8.646;2023-01-19T22:01:32;31.75;;;17.63;;
54845;SDS011;53889;50.084;8.646;2023-01-19T22:03:59;37.70;;;20.70;;
54845;SDS011;53889;50.084;8.646;2023-01-19T22:06:26;33.22;;;18.00;;
54845;SDS011;53889;50.084;8.646;2023-01-19T22:08:54;34.22;;;18.50;;
54845;SDS011;53889;50.084;8.646;2023-01-19T22:11:22;33.70;;;17.35;;
54845;SDS011;53889;50.084;8.646;2023-01-19T22:13:49;33.35;;;19.05;;
54845;SDS011;53889;50.084;8.646;2023-01-19T22:16:18;32.92;;;19.00;;
54845;SDS011;53889;50.084;8.646;2023-01-19T22:18:48;31.38;;;18.08;;
54845;SDS011;53889;50.084;8.646;2023-01-19T22:21:17;35.67;;;19.58;;
54845;SDS011;53889;50.084;8.646;2023-01-19T22:23:47;41.63;;;20.50;;
54845;SDS011;53889;50.084;8.646;2023-01-19T22:26:17;44.20;;;21.40;;
54845;SDS011;53889;50.084;8.646;2023-01-19T22:28:44;32.65;;;18.35;;
54845;SDS011;53889;50.084;8.646;2023-01-19T22:31:12;41.40;;;21.58;;
54845;SDS011;53889;50.084;8.646;2023-01-19T22:33:42;35.22;;;18.75;;
54845;SDS011;53889;50.084;8.646;2023-01-19T22:36:10;33.35;;;19.17;;
54845;SDS011;53889;50.084;8.646;2023-01-19T22:38:43;41.40;;;21.83;;
54845;SDS011;53889;50.084;8.646;2023-01-19T22:41:13;31.45;;;17.17;;
54845;SDS011;53889;50.084;8.646;2023-01-19T22:43:42;40.58;;;20.30;;
54845;SDS011;53889;50.084;8.646;2023-01-19T22:46:09;31.17;;;16.77;;
54845;SDS011;53889;50.084;8.646;2023-01-19T22:48:36;34.90;;;18.60;;
54845;SDS011;53889;50.084;8.646;2023-01-19T22:51:05;38.05;;;19.70;;
54845;SDS011;53889;50.084;8.646;2023-01-19T22:53:32;38.60;;;19.33;;
54845;SDS011;53889;50.084;8.646;2023-01-19T22:55:59;34.13;;;18.05;;
54845;SDS011;53889;50.084;8.646;2023-01-19T22:58:26;41.78;;;20.80;;
54845;SDS011;53889;50.084;8.646;2023-01-19T23:00:52;35.38;;;17.95;;
54845;SDS011;53889;50.084;8.646;2023-01-19T23:03:19;36.92;;;19.02;;
54845;SDS011;53889;50.084;8.646;2023-01-19T23:05:46;34.03;;;19.52;;
54845;SDS011;53889;50.084;8.646;2023-01-19T23:08:14;34.17;;;18.63;;
54845;SDS011;53889;50.084;8.646;2023-01-19T23:10:40;29.60;;;17.40;;
54845;SDS011;53889;50.084;8.646;2023-01-19T23:13:07;41.50;;;21.40;;
54845;SDS011;53889;50.084;8.646;2023-01-19T23:15:34;36.38;;;18.77;;
54845;SDS011;53889;50.084;8.646;2023-01-19T23:18:00;35.65;;;19.10;;
54845;SDS011;53889;50.084;8.646;2023-01-19T23:20:27;40.63;;;21.33;;
54845;SDS011;53889;50.084;8.646;2023-01-19T23:22:53;37.03;;;20.33;;
54845;SDS011;53889;50.084;8.646;2023-01-19T23:25:21;33.20;;;19.13;;
54845;SDS011;53889;50.084;8.646;2023-01-19T23:27:48;36.55;;;19.50;;
54845;SDS011;53889;50.084;8.646;2023-01-19T23:30:15;40.55;;;21.55;;
54845;SDS011;53889;50.084;8.646;2023-01-19T23:32:45;43.20;;;21.73;;
54845;SDS011;53889;50.084;8.646;2023-01-19T23:35:13;40.28;;;20.80;;
54845;SDS011;53889;50.084;8.646;2023-01-19T23:37:40;37.67;;;18.85;;
54845;SDS011;53889;50.084;8.646;2023-01-19T23:40:07;32.97;;;18.35;;
54845;SDS011;53889;50.084;8.646;2023-01-19T23:42:36;37.78;;;18.52;;
54845;SDS011;53889;50.084;8.646;2023-01-19T23:45:03;39.45;;;20.55;;
54845;SDS011;53889;50.084;8.646;2023-01-19T23:47:31;43.55;;;19.50;;
54845;SDS011;53889;50.084;8.646;2023-01-19T23:49:59;40.35;;;20.67;;